sensor_id;sensor_type;location;lat;lon;timestamp;pressure;altitude;pressure_sealevel;temperature;humidity
59877;BME280;45749;51.140;17.184;2023-05-11T00:00:05;100179.19;;;14.70;53.09
59877;BME280;45749;51.140;17.184;2023-05-11T00:02:31;100169.56;;;14.60;52.79
59877;BME280;45749;51.140;17.184;2023-05-11T00:04:57;100171.50;;;14.58;53.04
59877;BME280;45749;51.140;17.184;2023-05-11T00:07:22;100180.06;;;14.61;53.42
59877;BME280;45749;51.140;17.184;2023-05-11T00:09:47;100179.47;;;14.58;53.60
59877;BME280;45749;51.140;17.184;2023-05-11T00:12:13;100184.38;;;14.52;53.53
59877;BME280;45749;51.140;17.184;2023-05-11T00:14:38;100182.25;;;14.46;53.81
59877;BME280;45749;51.140;17.184;2023-05-11T00:17:04;100183.38;;;14.44;53.81
59877;BME280;45749;51.140;17.184;2023-05-11T00:19:30;100177.66;;;14.39;53.96
59877;BME280;45749;51.140;17.184;2023-05-11T00:21:56;100178.50;;;14.39;54.29
59877;BME280;45749;51.140;17.184;2023-05-11T00:24:22;100180.44;;;14.37;54.54
59877;BME280;45749;51.140;17.184;2023-05-11T00:26:47;100185.19;;;14.34;54.62
59877;BME280;45749;51.140;17.184;2023-05-11T00:29:13;100180.31;;;14.29;54.50
59877;BME280;45749;51.140;17.184;2023-05-11T00:31:38;100181.25;;;14.28;54.66
59877;BME280;45749;51.140;17.184;2023-05-11T00:34:03;100176.94;;;14.27;54.47
59877;BME280;45749;51.140;17.184;2023-05-11T00:36:29;100180.97;;;14.31;54.65
59877;BME280;45749;51.140;17.184;2023-05-11T00:38:54;100186.44;;;14.29;54.86
59877;BME280;45749;51.140;17.184;2023-05-11T00:41:19;100180.00;;;14.22;54.86
59877;BME280;45749;51.140;17.184;2023-05-11T00:43:45;100180.69;;;14.15;55.14
59877;BME280;45749;51.140;17.184;2023-05-11T00:46:11;100188.09;;;14.11;55.27
59877;BME280;45749;51.140;17.184;2023-05-11T00:48:36;100184.88;;;14.07;55.12
59877;BME280;45749;51.140;17.184;2023-05-11T00:51:03;100182.75;;;14.01;55.38
59877;BME280;45749;51.140;17.184;2023-05-11T00:53:28;100189.31;;;13.97;55.68
59877;BME280;45749;51.140;17.184;2023-05-11T00:55:54;100187.09;;;13.93;55.73
59877;BME280;45749;51.140;17.184;2023-05-11T00:58:19;100184.00;;;13.88;55.82
59877;BME280;45749;51.140;17.184;2023-05-11T01:00:44;100185.25;;;13.83;56.08
59877;BME280;45749;51.140;17.184;2023-05-11T01:03:12;100182.03;;;13.80;56.11
59877;BME280;45749;51.140;17.184;2023-05-11T01:06:00;100181.03;;;13.81;56.34
59877;BME280;45749;51.140;17.184;2023-05-11T01:08:37;100168.59;;;13.72;56.15
59877;BME280;45749;51.140;17.184;2023-05-11T01:14:34;100178.94;;;13.75;56.60
59877;BME280;45749;51.140;17.184;2023-05-11T01:17:09;100181.84;;;13.72;56.40
59877;BME280;45749;51.140;17.184;2023-05-11T01:19:42;100181.84;;;13.72;56.59
59877;BME280;45749;51.140;17.184;2023-05-11T01:22:30;100174.31;;;13.67;56.69
59877;BME280;45749;51.140;17.184;2023-05-11T01:25:06;100179.06;;;13.64;56.83
59877;BME280;45749;51.140;17.184;2023-05-11T01:28:01;100183.78;;;13.60;56.92
59877;BME280;45749;51.140;17.184;2023-05-11T01:33:13;100179.59;;;13.57;57.40
59877;BME280;45749;51.140;17.184;2023-05-11T01:35:42;100177.66;;;13.59;57.45
59877;BME280;45749;51.140;17.184;2023-05-11T01:38:12;100180.97;;;13.61;57.36
59877;BME280;45749;51.140;17.184;2023-05-11T01:40:38;100184.34;;;13.64;57.32
59877;BME280;45749;51.140;17.184;2023-05-11T01:43:12;100182.28;;;13.67;57.20
59877;BME280;45749;51.140;17.184;2023-05-11T01:45:40;100179.47;;;13.69;56.98
59877;BME280;45749;51.140;17.184;2023-05-11T01:48:12;100182.41;;;13.66;57.46
59877;BME280;45749;51.140;17.184;2023-05-11T01:50:38;100183.53;;;13.63;57.47
59877;BME280;45749;51.140;17.184;2023-05-11T01:53:04;100192.16;;;13.65;57.22
59877;BME280;45749;51.140;17.184;2023-05-11T01:55:31;100187.13;;;13.62;57.31
59877;BME280;45749;51.140;17.184;2023-05-11T01:57:59;100186.81;;;13.55;57.13
59877;BME280;45749;51.140;17.184;2023-05-11T02:00:27;100192.00;;;13.57;57.32
59877;BME280;45749;51.140;17.184;2023-05-11T02:02:53;100190.06;;;13.59;57.28
59877;BME280;45749;51.140;17.184;2023-05-11T02:05:22;100192.44;;;13.62;57.31
59877;BME280;45749;51.140;17.184;2023-05-11T02:07:51;100192.88;;;13.67;57.11
59877;BME280;45749;51.140;17.184;2023-05-11T02:10:18;100190.94;;;13.69;57.04
59877;BME280;45749;51.140;17.184;2023-05-11T02:12:45;100193.59;;;13.69;57.19
59877;BME280;45749;51.140;17.184;2023-05-11T02:15:14;100199.84;;;13.68;56.65
59877;BME280;45749;51.140;17.184;2023-05-11T02:17:41;100196.63;;;13.65;57.26
59877;BME280;45749;51.140;17.184;2023-05-11T02:20:08;100200.25;;;13.64;56.90
59877;BME280;45749;51.140;17.184;2023-05-11T02:22:37;100200.13;;;13.65;56.91
59877;BME280;45749;51.140;17.184;2023-05-11T02:25:06;100193.28;;;13.63;56.84
59877;BME280;45749;51.140;17.184;2023-05-11T02:27:32;100201.94;;;13.65;56.71
59877;BME280;45749;51.140;17.184;2023-05-11T02:29:58;100200.53;;;13.60;56.82
59877;BME280;45749;51.140;17.184;2023-05-11T02:32:24;100196.06;;;13.61;56.95
59877;BME280;45749;51.140;17.184;2023-05-11T02:35:05;100203.31;;;13.59;57.13
59877;BME280;45749;51.140;17.184;2023-05-11T02:37:32;100208.63;;;13.59;56.98
59877;BME280;45749;51.140;17.184;2023-05-11T02:40:02;100201.06;;;13.54;57.37
59877;BME280;45749;51.140;17.184;2023-05-11T02:42:37;100194.19;;;13.52;57.53
59877;BME280;45749;51.140;17.184;2023-05-11T02:45:06;100199.19;;;13.45;57.12
59877;BME280;45749;51.140;17.184;2023-05-11T02:47:37;100203.13;;;13.51;57.22
59877;BME280;45749;51.140;17.184;2023-05-11T02:50:04;100198.94;;;13.48;57.34
59877;BME280;45749;51.140;17.184;2023-05-11T02:52:32;100199.34;;;13.44;57.12
59877;BME280;45749;51.140;17.184;2023-05-11T02:55:00;100200.91;;;13.46;57.07
59877;BME280;45749;51.140;17.184;2023-05-11T02:57:26;100202.84;;;13.44;57.23
59877;BME280;45749;51.140;17.184;2023-05-11T02:59:52;100196.81;;;13.42;57.53
59877;BME280;45749;51.140;17.184;2023-05-11T03:02:17;100197.38;;;13.36;57.17
59877;BME280;45749;51.140;17.184;2023-05-11T03:04:42;100195.09;;;13.31;57.23
59877;BME280;45749;51.140;17.184;2023-05-11T03:07:08;100202.94;;;13.33;57.47
59877;BME280;45749;51.140;17.184;2023-05-11T03:09:34;100202.94;;;13.33;57.83
59877;BME280;45749;51.140;17.184;2023-05-11T03:12:01;100202.94;;;13.33;57.66
59877;BME280;45749;51.140;17.184;2023-05-11T03:14:27;100196.75;;;13.32;57.29
59877;BME280;45749;51.140;17.184;2023-05-11T03:16:54;100197.63;;;13.33;57.67
59877;BME280;45749;51.140;17.184;2023-05-11T03:19:20;100193.16;;;13.33;57.53
59877;BME280;45749;51.140;17.184;2023-05-11T03:21:46;100194.56;;;13.37;57.44
59877;BME280;45749;51.140;17.184;2023-05-11T03:24:14;100195.41;;;13.38;57.38
59877;BME280;45749;51.140;17.184;2023-05-11T03:26:41;100197.38;;;13.36;57.36
59877;BME280;45749;51.140;17.184;2023-05-11T03:29:07;100201.22;;;13.32;57.47
59877;BME280;45749;51.140;17.184;2023-05-11T03:31:34;100195.94;;;13.32;57.56
59877;BME280;45749;51.140;17.184;2023-05-11T03:33:59;100199.72;;;13.29;57.67
59877;BME280;45749;51.140;17.184;2023-05-11T03:36:25;100209.19;;;13.32;57.63
59877;BME280;45749;51.140;17.184;2023-05-11T03:38:53;100208.50;;;13.30;57.44
59877;BME280;45749;51.140;17.184;2023-05-11T03:41:20;100208.03;;;13.25;57.38
59877;BME280;45749;51.140;17.184;2023-05-11T03:43:48;100208.41;;;13.20;57.62
59877;BME280;45749;51.140;17.184;2023-05-11T03:46:18;100205.88;;;13.19;57.61
59877;BME280;45749;51.140;17.184;2023-05-11T03:48:44;100208.53;;;13.19;57.68
59877;BME280;45749;51.140;17.184;2023-05-11T03:51:10;100213.81;;;13.19;57.30
59877;BME280;45749;51.140;17.184;2023-05-11T03:53:37;100213.81;;;13.19;57.60
59877;BME280;45749;51.140;17.184;2023-05-11T03:56:03;100205.44;;;13.13;57.54
59877;BME280;45749;51.140;17.184;2023-05-11T03:58:29;100203.41;;;13.06;57.57
59877;BME280;45749;51.140;17.184;2023-05-11T04:00:54;100204.97;;;13.08;57.42
59877;BME280;45749;51.140;17.184;2023-05-11T04:03:20;100216.16;;;13.12;57.46
59877;BME280;45749;51.140;17.184;2023-05-11T04:05:45;100210.84;;;13.12;57.72
59877;BME280;45749;51.140;17.184;2023-05-11T04:08:11;100206.38;;;13.12;57.62
59877;BME280;45749;51.140;17.184;2023-05-11T04:10:36;100206.38;;;13.12;58.03
59877;BME280;45749;51.140;17.184;2023-05-11T04:13:02;100208.72;;;13.06;57.79
59877;BME280;45749;51.140;17.184;2023-05-11T04:15:28;100203.56;;;13.04;58.32
59877;BME280;45749;51.140;17.184;2023-05-11T04:17:54;100216.56;;;13.07;58.04
59877;BME280;45749;51.140;17.184;2023-05-11T04:20:19;100208.34;;;13.10;57.84
59877;BME280;45749;51.140;17.184;2023-05-11T04:22:44;100218.44;;;13.17;57.78
59877;BME280;45749;51.140;17.184;2023-05-11T04:25:10;100217.44;;;13.18;57.85
59877;BME280;45749;51.140;17.184;2023-05-11T04:27:35;100210.22;;;13.20;57.70
59877;BME280;45749;51.140;17.184;2023-05-11T04:30:01;100222.50;;;13.21;58.03
59877;BME280;45749;51.140;17.184;2023-05-11T04:32:26;100221.50;;;13.22;58.15
59877;BME280;45749;51.140;17.184;2023-05-11T04:34:52;100211.16;;;13.19;58.46
59877;BME280;45749;51.140;17.184;2023-05-11T04:37:17;100212.16;;;13.18;57.77
59877;BME280;45749;51.140;17.184;2023-05-11T04:39:42;100221.19;;;13.15;57.92
59877;BME280;45749;51.140;17.184;2023-05-11T04:42:08;100224.66;;;13.15;58.14
59877;BME280;45749;51.140;17.184;2023-05-11T04:44:33;100220.09;;;13.18;58.54
59877;BME280;45749;51.140;17.184;2023-05-11T04:46:58;100223.47;;;13.20;58.37
59877;BME280;45749;51.140;17.184;2023-05-11T04:49:24;100215.97;;;13.25;58.48
59877;BME280;45749;51.140;17.184;2023-05-11T04:51:49;100225.47;;;13.27;58.39
59877;BME280;45749;51.140;17.184;2023-05-11T04:54:15;100228.13;;;13.27;58.34
59877;BME280;45749;51.140;17.184;2023-05-11T04:56:41;100226.69;;;13.23;58.81
59877;BME280;45749;51.140;17.184;2023-05-11T04:59:06;100231.03;;;13.24;58.74
59877;BME280;45749;51.140;17.184;2023-05-11T05:01:32;100221.16;;;13.26;58.48
59877;BME280;45749;51.140;17.184;2023-05-11T05:03:57;100213.44;;;13.23;58.74
59877;BME280;45749;51.140;17.184;2023-05-11T05:06:22;100235.00;;;13.30;58.56
59877;BME280;45749;51.140;17.184;2023-05-11T05:08:48;100233.28;;;13.29;59.02
59877;BME280;45749;51.140;17.184;2023-05-11T05:11:13;100234.72;;;13.33;59.08
59877;BME280;45749;51.140;17.184;2023-05-11T05:13:38;100234.47;;;13.36;58.53
59877;BME280;45749;51.140;17.184;2023-05-11T05:16:04;100239.16;;;13.32;58.81
59877;BME280;45749;51.140;17.184;2023-05-11T05:18:29;100242.53;;;13.34;58.97
59877;BME280;45749;51.140;17.184;2023-05-11T05:20:54;100236.41;;;13.34;58.88
59877;BME280;45749;51.140;17.184;2023-05-11T05:23:20;100242.53;;;13.34;58.76
59877;BME280;45749;51.140;17.184;2023-05-11T05:25:46;100227.72;;;13.32;59.22
59877;BME280;45749;51.140;17.184;2023-05-11T05:28:11;100233.75;;;13.34;59.27
59877;BME280;45749;51.140;17.184;2023-05-11T05:30:36;100232.66;;;13.36;59.41
59877;BME280;45749;51.140;17.184;2023-05-11T05:33:02;100235.56;;;13.33;59.32
59877;BME280;45749;51.140;17.184;2023-05-11T05:35:27;100237.81;;;13.38;59.57
59877;BME280;45749;51.140;17.184;2023-05-11T05:37:52;100234.63;;;13.44;59.56
59877;BME280;45749;51.140;17.184;2023-05-11T05:40:17;100241.34;;;13.48;59.31
59877;BME280;45749;51.140;17.184;2023-05-11T05:42:43;100236.75;;;13.50;59.62
59877;BME280;45749;51.140;17.184;2023-05-11T05:45:09;100239.41;;;13.50;59.70
59877;BME280;45749;51.140;17.184;2023-05-11T05:47:34;100246.84;;;13.56;59.95
59877;BME280;45749;51.140;17.184;2023-05-11T05:49:59;100253.41;;;13.62;60.14
59877;BME280;45749;51.140;17.184;2023-05-11T05:52:25;100248.25;;;13.60;59.61
59877;BME280;45749;51.140;17.184;2023-05-11T05:54:50;100249.91;;;13.61;59.75
59877;BME280;45749;51.140;17.184;2023-05-11T05:57:15;100246.16;;;13.64;59.99
59877;BME280;45749;51.140;17.184;2023-05-11T05:59:41;100242.69;;;13.64;60.13
59877;BME280;45749;51.140;17.184;2023-05-11T06:02:07;100251.97;;;13.79;60.02
59877;BME280;45749;51.140;17.184;2023-05-11T06:04:32;100252.84;;;13.89;60.12
59877;BME280;45749;51.140;17.184;2023-05-11T06:06:57;100253.81;;;13.98;59.91
59877;BME280;45749;51.140;17.184;2023-05-11T06:09:24;100249.94;;;14.02;59.98
59877;BME280;45749;51.140;17.184;2023-05-11T06:11:49;100256.50;;;14.07;59.74
59877;BME280;45749;51.140;17.184;2023-05-11T06:14:15;100254.56;;;14.10;60.20
59877;BME280;45749;51.140;17.184;2023-05-11T06:16:40;100256.69;;;14.16;60.43
59877;BME280;45749;51.140;17.184;2023-05-11T06:19:07;100242.59;;;14.15;60.40
59877;BME280;45749;51.140;17.184;2023-05-11T06:21:32;100249.00;;;14.22;60.58
59877;BME280;45749;51.140;17.184;2023-05-11T06:23:57;100258.53;;;14.35;60.76
59877;BME280;45749;51.140;17.184;2023-05-11T06:26:23;100253.66;;;14.49;60.79
59877;BME280;45749;51.140;17.184;2023-05-11T06:28:49;100255.25;;;14.52;59.90
59877;BME280;45749;51.140;17.184;2023-05-11T06:31:15;100252.16;;;14.57;60.81
59877;BME280;45749;51.140;17.184;2023-05-11T06:33:40;100255.81;;;14.65;61.11
59877;BME280;45749;51.140;17.184;2023-05-11T06:36:05;100255.09;;;14.73;61.11
59877;BME280;45749;51.140;17.184;2023-05-11T06:38:31;100256.75;;;14.84;61.75
59877;BME280;45749;51.140;17.184;2023-05-11T06:40:56;100250.91;;;14.90;61.21
59877;BME280;45749;51.140;17.184;2023-05-11T06:43:22;100254.81;;;14.95;61.12
59877;BME280;45749;51.140;17.184;2023-05-11T06:45:47;100259.13;;;15.06;61.10
59877;BME280;45749;51.140;17.184;2023-05-11T06:48:13;100248.50;;;15.16;61.31
59877;BME280;45749;51.140;17.184;2023-05-11T06:50:38;100247.34;;;15.28;61.13
59877;BME280;45749;51.140;17.184;2023-05-11T06:53:04;100260.47;;;15.39;61.05
59877;BME280;45749;51.140;17.184;2023-05-11T06:55:29;100260.06;;;15.44;60.55
59877;BME280;45749;51.140;17.184;2023-05-11T06:57:54;100257.66;;;15.51;60.70
59877;BME280;45749;51.140;17.184;2023-05-11T07:00:20;100248.09;;;15.58;60.66
59877;BME280;45749;51.140;17.184;2023-05-11T07:02:45;100251.16;;;15.63;60.24
59877;BME280;45749;51.140;17.184;2023-05-11T07:05:10;100265.72;;;15.68;60.27
59877;BME280;45749;51.140;17.184;2023-05-11T07:07:37;100251.72;;;15.76;60.74
59877;BME280;45749;51.140;17.184;2023-05-11T07:10:02;100257.56;;;15.80;60.61
59877;BME280;45749;51.140;17.184;2023-05-11T07:12:28;100247.84;;;15.88;60.72
59877;BME280;45749;51.140;17.184;2023-05-11T07:14:53;100254.66;;;16.01;61.22
59877;BME280;45749;51.140;17.184;2023-05-11T07:17:18;100251.13;;;16.10;60.64
59877;BME280;45749;51.140;17.184;2023-05-11T07:19:44;100248.94;;;16.23;60.74
59877;BME280;45749;51.140;17.184;2023-05-11T07:22:09;100259.38;;;16.34;60.49
59877;BME280;45749;51.140;17.184;2023-05-11T07:24:34;100251.31;;;16.44;60.35
59877;BME280;45749;51.140;17.184;2023-05-11T07:27:00;100258.41;;;16.53;60.54
59877;BME280;45749;51.140;17.184;2023-05-11T07:29:26;100267.47;;;16.60;60.24
59877;BME280;45749;51.140;17.184;2023-05-11T07:31:51;100258.47;;;16.61;59.88
59877;BME280;45749;51.140;17.184;2023-05-11T07:34:17;100260.22;;;16.71;60.13
59877;BME280;45749;51.140;17.184;2023-05-11T07:36:42;100258.66;;;16.78;60.11
59877;BME280;45749;51.140;17.184;2023-05-11T07:39:07;100259.56;;;16.86;60.19
59877;BME280;45749;51.140;17.184;2023-05-11T07:41:34;100261.31;;;16.96;59.63
59877;BME280;45749;51.140;17.184;2023-05-11T07:44:00;100259.72;;;17.03;59.72
59877;BME280;45749;51.140;17.184;2023-05-11T07:46:25;100252.75;;;17.10;59.74
59877;BME280;45749;51.140;17.184;2023-05-11T07:48:51;100255.81;;;17.15;59.73
59877;BME280;45749;51.140;17.184;2023-05-11T07:51:16;100254.03;;;17.24;59.68
59877;BME280;45749;51.140;17.184;2023-05-11T07:53:42;100260.44;;;17.31;59.55
59877;BME280;45749;51.140;17.184;2023-05-11T07:56:07;100258.09;;;17.36;59.14
59877;BME280;45749;51.140;17.184;2023-05-11T07:58:32;100254.44;;;17.37;58.93
59877;BME280;45749;51.140;17.184;2023-05-11T08:00:58;100268.84;;;17.44;58.90
59877;BME280;45749;51.140;17.184;2023-05-11T08:03:23;100261.38;;;17.48;59.37
59877;BME280;45749;51.140;17.184;2023-05-11T08:05:48;100260.25;;;17.58;59.38
59877;BME280;45749;51.140;17.184;2023-05-11T08:08:14;100265.63;;;17.67;59.31
59877;BME280;45749;51.140;17.184;2023-05-11T08:10:40;100257.16;;;17.71;58.81
59877;BME280;45749;51.140;17.184;2023-05-11T08:13:05;100260.06;;;17.78;59.12
59877;BME280;45749;51.140;17.184;2023-05-11T08:15:31;100261.78;;;17.87;59.73
59877;BME280;45749;51.140;17.184;2023-05-11T08:17:56;100254.63;;;17.96;59.29
59877;BME280;45749;51.140;17.184;2023-05-11T08:20:21;100256.69;;;18.10;60.04
59877;BME280;45749;51.140;17.184;2023-05-11T08:22:47;100263.75;;;18.27;58.94
59877;BME280;45749;51.140;17.184;2023-05-11T08:25:13;100265.78;;;18.42;59.10
59877;BME280;45749;51.140;17.184;2023-05-11T08:27:38;100260.78;;;18.55;58.54
59877;BME280;45749;51.140;17.184;2023-05-11T08:30:04;100264.19;;;18.73;58.84
59877;BME280;45749;51.140;17.184;2023-05-11T08:32:29;100266.69;;;18.91;58.11
59877;BME280;45749;51.140;17.184;2023-05-11T08:34:55;100263.88;;;19.09;58.33
59877;BME280;45749;51.140;17.184;2023-05-11T08:37:21;100265.38;;;19.20;58.62
59877;BME280;45749;51.140;17.184;2023-05-11T08:39:47;100257.31;;;19.36;58.19
59877;BME280;45749;51.140;17.184;2023-05-11T08:42:14;100257.97;;;19.47;57.33
59877;BME280;45749;51.140;17.184;2023-05-11T08:44:41;100267.84;;;19.46;56.40
59877;BME280;45749;51.140;17.184;2023-05-11T08:47:07;100263.47;;;19.53;56.74
59877;BME280;45749;51.140;17.184;2023-05-11T08:49:33;100256.13;;;19.63;56.57
59877;BME280;45749;51.140;17.184;2023-05-11T08:52:03;100255.41;;;19.78;56.77
59877;BME280;45749;51.140;17.184;2023-05-11T08:54:29;100251.69;;;19.87;55.96
59877;BME280;45749;51.140;17.184;2023-05-11T08:56:54;100252.13;;;19.99;55.16
59877;BME280;45749;51.140;17.184;2023-05-11T08:59:21;100258.81;;;20.03;55.56
59877;BME280;45749;51.140;17.184;2023-05-11T09:01:48;100252.75;;;20.09;54.28
59877;BME280;45749;51.140;17.184;2023-05-11T09:04:16;100245.22;;;20.12;54.78
59877;BME280;45749;51.140;17.184;2023-05-11T09:06:42;100250.34;;;20.22;54.89
59877;BME280;45749;51.140;17.184;2023-05-11T09:09:08;100256.44;;;20.39;54.40
59877;BME280;45749;51.140;17.184;2023-05-11T09:11:33;100250.38;;;20.45;53.95
59877;BME280;45749;51.140;17.184;2023-05-11T09:13:59;100251.84;;;20.56;53.48
59877;BME280;45749;51.140;17.184;2023-05-11T09:16:24;100251.59;;;20.66;52.46
59877;BME280;45749;51.140;17.184;2023-05-11T09:18:51;100248.22;;;20.72;52.63
59877;BME280;45749;51.140;17.184;2023-05-11T09:21:17;100251.22;;;20.77;52.61
59877;BME280;45749;51.140;17.184;2023-05-11T09:23:43;100245.97;;;20.83;51.64
59877;BME280;45749;51.140;17.184;2023-05-11T09:26:21;100244.75;;;20.86;50.65
59877;BME280;45749;51.140;17.184;2023-05-11T09:28:59;100254.75;;;20.92;50.16
59877;BME280;45749;51.140;17.184;2023-05-11T09:31:34;100250.72;;;20.96;50.47
59877;BME280;45749;51.140;17.184;2023-05-11T09:34:10;100243.97;;;21.00;49.05
59877;BME280;45749;51.140;17.184;2023-05-11T09:36:36;100238.97;;;20.97;50.13
59877;BME280;45749;51.140;17.184;2023-05-11T09:39:02;100240.72;;;21.05;49.60
59877;BME280;45749;51.140;17.184;2023-05-11T09:41:28;100244.34;;;21.12;50.53
59877;BME280;45749;51.140;17.184;2023-05-11T09:44:12;100246.69;;;21.15;48.36
59877;BME280;45749;51.140;17.184;2023-05-11T09:46:42;100245.84;;;21.15;48.77
59877;BME280;45749;51.140;17.184;2023-05-11T09:49:08;100241.50;;;21.14;48.69
59877;BME280;45749;51.140;17.184;2023-05-11T09:51:36;100241.41;;;21.22;49.40
59877;BME280;45749;51.140;17.184;2023-05-11T09:54:22;100237.13;;;21.36;49.23
59877;BME280;45749;51.140;17.184;2023-05-11T09:56:52;100231.69;;;21.59;49.28
59877;BME280;45749;51.140;17.184;2023-05-11T09:59:40;100230.19;;;21.86;48.51
59877;BME280;45749;51.140;17.184;2023-05-11T10:02:22;100230.06;;;22.09;50.04
59877;BME280;45749;51.140;17.184;2023-05-11T10:04:49;100222.69;;;22.32;47.78
59877;BME280;45749;51.140;17.184;2023-05-11T10:07:32;100226.50;;;22.38;45.32
59877;BME280;45749;51.140;17.184;2023-05-11T10:09:59;100219.63;;;22.35;43.79
59877;BME280;45749;51.140;17.184;2023-05-11T10:12:26;100223.06;;;22.29;44.29
59877;BME280;45749;51.140;17.184;2023-05-11T10:14:54;100223.25;;;22.28;44.20
59877;BME280;45749;51.140;17.184;2023-05-11T10:17:20;100217.81;;;22.21;42.66
59877;BME280;45749;51.140;17.184;2023-05-11T10:19:48;100224.09;;;22.13;41.87
59877;BME280;45749;51.140;17.184;2023-05-11T10:22:14;100223.47;;;22.11;42.56
59877;BME280;45749;51.140;17.184;2023-05-11T10:24:42;100216.88;;;22.14;42.36
59877;BME280;45749;51.140;17.184;2023-05-11T10:27:07;100220.69;;;22.19;42.87
59877;BME280;45749;51.140;17.184;2023-05-11T10:29:33;100214.34;;;22.27;42.92
59877;BME280;45749;51.140;17.184;2023-05-11T10:32:00;100220.72;;;22.41;42.92
59877;BME280;45749;51.140;17.184;2023-05-11T10:34:27;100210.72;;;22.56;42.54
59877;BME280;45749;51.140;17.184;2023-05-11T10:36:53;100204.25;;;22.72;42.43
59877;BME280;45749;51.140;17.184;2023-05-11T10:39:20;100205.13;;;22.94;42.22
59877;BME280;45749;51.140;17.184;2023-05-11T10:50:12;100209.50;;;23.30;41.21
59877;BME280;45749;51.140;17.184;2023-05-11T10:58:15;100203.03;;;22.96;38.86
59877;BME280;45749;51.140;17.184;2023-05-11T11:03:23;100190.28;;;22.83;38.93
59877;BME280;45749;51.140;17.184;2023-05-11T11:05:48;100187.59;;;22.83;39.58
59877;BME280;45749;51.140;17.184;2023-05-11T11:08:13;100193.63;;;22.85;38.27
59877;BME280;45749;51.140;17.184;2023-05-11T11:10:41;100193.03;;;22.90;38.17
59877;BME280;45749;51.140;17.184;2023-05-11T11:13:15;100195.53;;;22.91;39.24
59877;BME280;45749;51.140;17.184;2023-05-11T11:18:26;100187.63;;;23.11;39.27
59877;BME280;45749;51.140;17.184;2023-05-11T11:20:52;100190.59;;;23.16;38.04
59877;BME280;45749;51.140;17.184;2023-05-11T11:23:44;100187.00;;;23.09;38.12
59877;BME280;45749;51.140;17.184;2023-05-11T11:26:11;100195.84;;;23.03;37.34
59877;BME280;45749;51.140;17.184;2023-05-11T11:31:27;100196.13;;;22.87;36.17
59877;BME280;45749;51.140;17.184;2023-05-11T11:33:54;100192.09;;;22.76;37.58
59877;BME280;45749;51.140;17.184;2023-05-11T11:42:19;100192.34;;;22.81;37.42
59877;BME280;45749;51.140;17.184;2023-05-11T11:45:26;100193.09;;;22.97;37.75
59877;BME280;45749;51.140;17.184;2023-05-11T11:48:10;100183.91;;;23.12;38.11
59877;BME280;45749;51.140;17.184;2023-05-11T11:50:41;100188.41;;;23.33;37.84
59877;BME280;45749;51.140;17.184;2023-05-11T11:53:11;100191.75;;;23.42;38.02
59877;BME280;45749;51.140;17.184;2023-05-11T11:55:48;100187.69;;;23.53;39.08
59877;BME280;45749;51.140;17.184;2023-05-11T12:01:13;100187.03;;;23.85;39.54
59877;BME280;45749;51.140;17.184;2023-05-11T12:03:39;100186.66;;;23.95;39.82
59877;BME280;45749;51.140;17.184;2023-05-11T12:06:09;100188.97;;;24.05;40.19
59877;BME280;45749;51.140;17.184;2023-05-11T12:08:36;100188.38;;;24.16;39.96
59877;BME280;45749;51.140;17.184;2023-05-11T12:11:02;100195.22;;;24.12;39.31
59877;BME280;45749;51.140;17.184;2023-05-11T12:13:28;100198.72;;;23.99;38.70
59877;BME280;45749;51.140;17.184;2023-05-11T12:16:15;100184.31;;;23.85;39.19
59877;BME280;45749;51.140;17.184;2023-05-11T12:18:50;100185.16;;;23.79;38.96
59877;BME280;45749;51.140;17.184;2023-05-11T12:26:19;100178.41;;;23.62;37.98
59877;BME280;45749;51.140;17.184;2023-05-11T12:28:49;100183.72;;;23.49;38.30
59877;BME280;45749;51.140;17.184;2023-05-11T12:31:17;100182.47;;;23.45;38.76
59877;BME280;45749;51.140;17.184;2023-05-11T12:33:47;100177.28;;;23.43;39.01
59877;BME280;45749;51.140;17.184;2023-05-11T12:36:14;100170.22;;;23.42;38.98
59877;BME280;45749;51.140;17.184;2023-05-11T12:38:44;100170.66;;;23.46;39.21
59877;BME280;45749;51.140;17.184;2023-05-11T12:41:09;100165.03;;;23.40;38.35
59877;BME280;45749;51.140;17.184;2023-05-11T12:43:35;100165.16;;;23.26;37.96
59877;BME280;45749;51.140;17.184;2023-05-11T12:46:01;100164.28;;;23.18;38.51
59877;BME280;45749;51.140;17.184;2023-05-11T12:48:27;100161.81;;;23.17;38.32
59877;BME280;45749;51.140;17.184;2023-05-11T12:50:53;100161.38;;;23.13;38.22
59877;BME280;45749;51.140;17.184;2023-05-11T12:53:20;100159.94;;;23.17;38.74
59877;BME280;45749;51.140;17.184;2023-05-11T12:55:56;100161.88;;;23.30;39.39
59877;BME280;45749;51.140;17.184;2023-05-11T12:58:22;100151.63;;;23.47;39.26
59877;BME280;45749;51.140;17.184;2023-05-11T13:00:51;100153.53;;;23.60;38.21
59877;BME280;45749;51.140;17.184;2023-05-11T13:03:22;100149.16;;;23.59;37.86
59877;BME280;45749;51.140;17.184;2023-05-11T13:05:48;100151.00;;;23.52;38.17
59877;BME280;45749;51.140;17.184;2023-05-11T13:08:13;100140.47;;;23.57;38.09
59877;BME280;45749;51.140;17.184;2023-05-11T13:10:40;100148.59;;;23.63;37.94
59877;BME280;45749;51.140;17.184;2023-05-11T13:13:05;100142.38;;;23.63;38.18
59877;BME280;45749;51.140;17.184;2023-05-11T13:15:31;100140.50;;;23.63;38.02
59877;BME280;45749;51.140;17.184;2023-05-11T13:17:58;100136.75;;;23.58;38.20
59877;BME280;45749;51.140;17.184;2023-05-11T13:20:33;100128.03;;;23.56;37.87
59877;BME280;45749;51.140;17.184;2023-05-11T13:23:06;100138.63;;;23.57;37.99